Time;durP1;ratioP1;P1;durP2;ratioP2;P2;SDS_P1;SDS_P2;PMS_P1;PMS_P2;Temp;Humidity;BMP_temperature;BMP_pressure;BME280_temperature;BME280_humidity;BME280_pressure;Samples;Min_cycle;Max_cycle;Signal;HPM_P1;HPM_P2
2023/06/27 00:01:04;;;;;;;12.65;2.88;;;15.40;99.90;;;18.06;100.00;100997.19;4975911;28;20041;-81
2023/06/27 00:03:36;;;;;;;10.25;2.50;;;15.30;99.90;;;18.33;100.00;101009.38;4996069;28;20044;-82
2023/06/27 00:06:04;;;;;;;11.60;2.80;;;15.30;99.90;;;18.34;100.00;100994.47;4993311;28;20035;-80
2023/06/27 00:08:31;;;;;;;12.50;2.78;;;15.20;99.90;;;18.45;100.00;101003.69;5011321;28;20021;-80
2023/06/27 00:10:57;;;;;;;10.52;2.83;;;15.10;99.90;;;18.19;100.00;101004.25;5007737;28;20049;-80
2023/06/27 00:13:23;;;;;;;7.47;2.20;;;15.20;99.90;;;18.29;100.00;101010.97;4992172;28;20141;-81
2023/06/27 00:15:52;;;;;;;8.93;2.53;;;15.10;99.90;;;18.18;100.00;101007.28;4999827;28;20042;-81
2023/06/27 00:18:22;;;;;;;9.05;2.65;;;15.00;99.90;;;18.24;100.00;101009.81;4995217;28;20051;-79
2023/06/27 00:20:49;;;;;;;5.97;2.40;;;15.00;99.90;;;18.14;100.00;101012.47;5001589;28;20092;-79
2023/06/27 00:23:27;;;;;;;9.57;2.25;;;15.00;99.90;;;18.09;100.00;101009.66;4999882;28;20128;-81
2023/06/27 00:25:53;;;;;;;10.90;2.47;;;15.00;99.90;;;18.37;100.00;101007.75;5001475;28;20042;-81
2023/06/27 00:28:18;;;;;;;10.00;2.40;;;14.90;99.90;;;17.96;100.00;101011.69;4979704;28;20045;-80
2023/06/27 00:30:44;;;;;;;12.23;2.67;;;14.90;99.90;;;18.17;100.00;101017.47;4983125;28;20080;-80
2023/06/27 00:33:10;;;;;;;7.35;2.53;;;14.80;99.90;;;17.86;100.00;101019.00;5009115;28;20148;-79
2023/06/27 00:35:38;;;;;;;7.88;2.70;;;14.80;99.90;;;18.20;100.00;101011.44;4991317;28;20030;-80
2023/06/27 00:38:04;;;;;;;10.65;2.72;;;14.60;99.90;;;18.26;100.00;101015.91;4997418;28;20163;-79
2023/06/27 00:40:31;;;;;;;8.65;2.70;;;14.50;99.90;;;18.26;100.00;101020.63;4982599;28;20046;-80
2023/06/27 00:42:57;;;;;;;9.57;3.10;;;14.30;99.90;;;18.04;100.00;101023.41;4991105;28;20044;-80
2023/06/27 00:45:23;;;;;;;7.50;2.75;;;14.10;99.90;;;18.04;100.00;101020.66;4994230;28;20116;-80
2023/06/27 00:47:52;;;;;;;12.65;3.28;;;14.00;99.90;;;17.89;100.00;101022.09;4989212;28;20038;-80
2023/06/27 00:50:21;;;;;;;11.77;3.75;;;13.80;99.90;;;17.80;100.00;101029.16;4994795;28;20132;-79
2023/06/27 00:52:47;;;;;;;9.70;3.90;;;13.70;99.90;;;17.77;100.00;101029.66;4994876;28;20056;-80
2023/06/27 00:55:12;;;;;;;12.10;3.45;;;13.60;99.90;;;17.69;100.00;101028.19;5004046;28;20403;-80
2023/06/27 00:57:40;;;;;;;10.23;3.50;;;13.50;99.90;;;17.53;100.00;101029.91;5000037;28;20030;-80
2023/06/27 01:00:10;;;;;;;12.48;3.70;;;13.50;99.90;;;17.47;100.00;101029.00;4990203;28;20100;-80
2023/06/27 01:02:36;;;;;;;8.05;3.58;;;13.40;99.90;;;17.36;100.00;101036.28;5001564;28;20129;-80
2023/06/27 01:05:03;;;;;;;14.38;3.63;;;13.40;99.90;;;17.06;100.00;101037.47;4991234;28;20442;-80
2023/06/27 01:07:52;;;;;;;8.60;3.78;;;13.30;99.90;;;17.25;100.00;101045.50;4976358;28;20038;-80
2023/06/27 01:10:52;;;;;;;10.15;3.35;;;13.40;99.90;;;17.11;100.00;101040.31;5001385;28;20037;-80
2023/06/27 01:13:33;;;;;;;9.27;3.80;;;13.30;99.90;;;17.22;100.00;101040.47;5005124;28;20056;-79
2023/06/27 01:15:59;;;;;;;10.68;3.55;;;13.20;99.90;;;17.03;100.00;101040.75;4994318;28;20049;-80
2023/06/27 01:18:27;;;;;;;9.70;3.75;;;13.20;99.90;;;17.19;100.00;101036.31;4982071;28;20074;-81
2023/06/27 01:20:53;;;;;;;9.50;3.50;;;13.20;99.90;;;17.20;100.00;101031.63;5022030;28;20033;-79
2023/06/27 01:23:53;;;;;;;13.23;4.57;;;13.10;99.90;;;17.05;100.00;101035.81;5002129;28;20423;-80
2023/06/27 01:26:20;;;;;;;12.35;3.45;;;13.10;99.90;;;17.07;100.00;101035.53;5002964;28;20070;-80
2023/06/27 01:28:46;;;;;;;10.68;3.85;;;13.00;99.90;;;16.90;100.00;101028.09;5015201;28;20478;-80
2023/06/27 01:31:34;;;;;;;7.65;3.20;;;13.00;99.90;;;16.79;100.00;101027.09;5007645;28;20034;-79
2023/06/27 01:34:36;;;;;;;8.10;3.20;;;12.90;99.90;;;16.57;100.00;101035.22;5006808;28;20590;-79
2023/06/27 01:37:25;;;;;;;14.25;3.70;;;12.80;99.90;;;16.47;100.00;101035.06;5004679;28;20121;-80
2023/06/27 01:40:00;;;;;;;8.27;3.40;;;12.80;99.90;;;16.23;100.00;101027.75;4997818;28;20124;-80
2023/06/27 01:42:37;;;;;;;6.05;3.30;;;12.80;99.90;;;16.51;100.00;101025.22;5022247;28;20038;-79
2023/06/27 01:45:06;;;;;;;9.73;3.13;;;12.90;99.90;;;16.64;100.00;101019.41;5021573;28;20596;-80
2023/06/27 01:47:35;;;;;;;10.20;2.90;;;12.80;99.90;;;16.48;100.00;101022.94;5002304;28;20494;-79
2023/06/27 01:50:03;;;;;;;8.82;3.30;;;12.90;99.90;;;16.62;100.00;101015.22;5006194;28;20038;-81
2023/06/27 01:52:28;;;;;;;9.07;2.80;;;12.90;99.90;;;16.56;100.00;101013.47;4994139;28;20362;-81
2023/06/27 01:54:54;;;;;;;6.25;2.38;;;13.00;99.90;;;16.60;100.00;101015.47;4989328;28;20042;-81
2023/06/27 01:57:20;;;;;;;9.65;3.03;;;13.00;99.90;;;16.63;100.00;101008.63;4993770;28;20042;-80
2023/06/27 01:59:46;;;;;;;7.80;2.75;;;13.00;99.90;;;16.24;100.00;101009.28;4991800;28;20367;-78
2023/06/27 02:02:11;;;;;;;8.77;3.20;;;13.00;99.90;;;16.03;100.00;101002.56;5000039;28;20375;-81
2023/06/27 02:04:37;;;;;;;7.38;2.45;;;13.10;99.90;;;16.44;100.00;101008.84;5007116;28;20129;-78
2023/06/27 02:07:03;;;;;;;7.75;2.70;;;13.00;99.90;;;16.58;100.00;101014.91;5006915;28;20050;-79
2023/06/27 02:09:28;;;;;;;7.00;2.38;;;13.00;99.90;;;16.50;100.00;101010.63;4993704;28;20439;-79
2023/06/27 02:11:54;;;;;;;11.20;2.67;;;12.90;99.90;;;16.25;100.00;101005.47;5005648;28;20418;-80
2023/06/27 02:14:20;;;;;;;7.95;2.60;;;13.00;99.90;;;16.43;100.00;101001.66;4993516;28;20042;-80
2023/06/27 02:16:46;;;;;;;8.98;2.90;;;12.90;99.90;;;16.14;100.00;101009.13;5008366;28;20049;-79
2023/06/27 02:19:11;;;;;;;6.50;2.30;;;12.90;99.90;;;16.09;100.00;101009.84;4982824;28;20504;-79
2023/06/27 02:21:37;;;;;;;3.42;2.00;;;12.90;99.90;;;16.38;100.00;101005.19;4975695;28;20080;-79
2023/06/27 02:24:03;;;;;;;6.22;2.30;;;12.90;99.90;;;15.93;100.00;101009.53;4966493;28;20495;-79
2023/06/27 02:26:29;;;;;;;7.25;2.40;;;13.00;99.90;;;16.12;100.00;101011.28;4982879;28;20479;-79
2023/06/27 02:28:54;;;;;;;6.57;2.05;;;13.00;99.90;;;16.28;100.00;101009.66;4984218;28;20453;-79
2023/06/27 02:31:20;;;;;;;6.63;2.00;;;12.90;99.90;;;16.17;100.00;101019.63;4979790;28;20038;-79
2023/06/27 02:33:46;;;;;;;6.75;2.30;;;12.90;99.90;;;16.34;100.00;101011.41;4973555;28;20035;-80
2023/06/27 02:36:12;;;;;;;8.32;2.22;;;12.80;99.90;;;15.92;100.00;101013.38;4973542;28;20034;-79
2023/06/27 02:38:38;;;;;;;5.93;2.08;;;12.80;99.90;;;16.13;100.00;101013.75;4979106;28;20038;-80
2023/06/27 02:41:04;;;;;;;6.43;2.80;;;12.70;99.90;;;15.73;100.00;101012.66;4978728;28;20038;-78
2023/06/27 02:43:32;;;;;;;8.93;2.55;;;12.80;99.90;;;16.07;100.00;101003.75;4961872;28;20062;-78
2023/06/27 02:45:58;;;;;;;8.55;2.28;;;12.80;99.90;;;16.10;100.00;101008.75;4964200;28;20430;-79
2023/06/27 02:48:23;;;;;;;7.63;2.17;;;12.70;99.90;;;16.25;100.00;101006.31;4983319;28;20038;-80
2023/06/27 02:50:50;;;;;;;4.97;2.00;;;12.70;99.90;;;16.27;100.00;101010.72;4977710;28;20030;-80
2023/06/27 02:53:17;;;;;;;6.45;2.15;;;12.60;99.90;;;16.25;100.00;101002.72;4976461;28;20141;-79
2023/06/27 02:55:43;;;;;;;5.22;2.67;;;12.50;99.90;;;16.11;100.00;101010.44;4956257;28;20031;-79
2023/06/27 02:58:09;;;;;;;5.75;2.15;;;12.50;99.90;;;16.07;100.00;101009.25;4981750;28;20061;-80
2023/06/27 03:00:35;;;;;;;10.15;2.28;;;12.40;99.90;;;16.15;100.00;101010.78;4960989;28;20048;-78
2023/06/27 03:03:02;;;;;;;7.65;2.30;;;12.40;99.90;;;16.04;100.00;101004.25;4967736;28;20478;-79
2023/06/27 03:05:27;;;;;;;8.13;2.28;;;12.40;99.90;;;15.93;100.00;101009.53;4966947;28;20065;-79
2023/06/27 03:07:54;;;;;;;5.90;2.10;;;12.40;99.90;;;15.99;100.00;101009.66;4994035;28;20335;-78
2023/06/27 03:10:20;;;;;;;5.75;1.98;;;12.40;99.90;;;15.99;100.00;101004.13;4993348;28;20154;-79
2023/06/27 03:12:45;;;;;;;4.50;2.22;;;12.40;99.90;;;15.94;100.00;101000.22;4972188;28;20061;-80
2023/06/27 03:15:11;;;;;;;6.75;2.13;;;12.40;99.90;;;16.00;100.00;101008.56;4966841;28;20499;-80
2023/06/27 03:17:37;;;;;;;6.65;2.22;;;12.40;99.90;;;16.11;100.00;101010.44;4972292;28;20088;-80
2023/06/27 03:20:04;;;;;;;4.60;2.00;;;12.40;99.90;;;16.09;100.00;101001.59;4992086;28;20041;-79
2023/06/27 03:22:30;;;;;;;6.13;2.05;;;12.40;99.90;;;15.86;100.00;101006.06;5004737;28;20485;-79
2023/06/27 03:24:58;;;;;;;9.23;2.42;;;12.50;99.90;;;16.02;100.00;101003.66;4985335;28;20385;-76
2023/06/27 03:27:24;;;;;;;7.88;2.28;;;12.50;99.90;;;16.31;100.00;101004.50;5002671;28;20041;-76
2023/06/27 03:29:51;;;;;;;5.57;2.15;;;12.50;99.90;;;16.30;100.00;100999.22;4974463;28;20553;-75
2023/06/27 03:32:17;;;;;;;5.57;2.13;;;12.50;99.90;;;16.37;100.00;101008.16;4999887;28;21919;-76
2023/06/27 03:34:43;;;;;;;7.15;2.22;;;12.60;99.90;;;16.20;100.00;101000.72;4974111;28;20113;-75
2023/06/27 03:37:09;;;;;;;5.13;2.00;;;12.60;99.90;;;16.45;100.00;101002.28;4983005;28;20546;-75
2023/06/27 03:39:35;;;;;;;4.60;2.15;;;12.70;99.90;;;16.45;100.00;100998.66;4990125;28;20046;-76
2023/06/27 03:42:02;;;;;;;6.35;1.83;;;12.70;99.90;;;16.46;100.00;100994.84;4983813;28;20033;-76
2023/06/27 03:44:28;;;;;;;7.88;2.38;;;12.60;99.90;;;16.52;100.00;100999.34;5006350;28;20038;-76
2023/06/27 03:46:54;;;;;;;5.03;2.00;;;12.70;99.90;;;16.58;100.00;100995.63;4991692;28;20049;-76
2023/06/27 03:49:21;;;;;;;8.20;2.27;;;12.70;99.90;;;16.79;100.00;101004.19;4993824;28;20034;-76
2023/06/27 03:51:47;;;;;;;7.20;2.00;;;12.70;99.90;;;16.69;100.00;101004.84;4993137;28;20398;-77
2023/06/27 03:54:12;;;;;;;6.05;2.30;;;12.80;99.90;;;16.74;100.00;101004.97;4990699;28;20026;-75
2023/06/27 03:56:38;;;;;;;7.72;2.22;;;12.90;99.90;;;16.82;100.00;101001.78;4995678;28;20037;-76
2023/06/27 03:59:04;;;;;;;6.68;2.00;;;12.90;99.90;;;16.93;100.00;101007.47;5000023;28;20394;-76
2023/06/27 04:01:30;;;;;;;8.73;2.20;;;13.00;99.90;;;16.95;100.00;101010.78;4991463;28;20239;-77
2023/06/27 04:03:56;;;;;;;6.68;2.20;;;13.10;99.90;;;16.97;100.00;101006.72;4993693;28;20129;-79
2023/06/27 04:06:22;;;;;;;8.10;2.47;;;13.10;99.90;;;17.12;100.00;101002.56;4980898;28;20061;-81
2023/06/27 04:08:49;;;;;;;6.77;2.07;;;13.20;99.90;;;17.31;100.00;101008.63;4979842;28;20580;-83
2023/06/27 04:11:14;;;;;;;4.50;1.90;;;13.20;99.90;;;17.44;100.00;101004.69;4975619;28;20042;-79
2023/06/27 04:13:40;;;;;;;6.57;2.10;;;13.30;99.90;;;17.36;100.00;101003.19;5011415;28;20030;-77
2023/06/27 04:16:06;;;;;;;5.60;2.35;;;13.40;99.90;;;17.34;100.00;101005.38;4996845;28;20516;-76
2023/06/27 04:18:31;;;;;;;7.30;2.67;;;13.40;99.90;;;17.39;100.00;101010.94;5001268;28;20046;-80
2023/06/27 04:20:58;;;;;;;4.80;2.05;;;13.50;99.90;;;17.75;100.00;101004.25;4993590;28;20037;-80
2023/06/27 04:23:25;;;;;;;7.50;2.50;;;13.60;99.90;;;17.63;100.00;100999.69;4977504;28;20393;-80
2023/06/27 04:26:07;;;;;;;5.05;1.88;;;13.70;99.90;;;18.01;100.00;101010.94;5013649;28;20053;-81
2023/06/27 04:28:34;;;;;;;6.00;2.38;;;13.80;99.90;;;18.17;99.37;101006.44;5005334;28;20034;-76
2023/06/27 04:31:02;;;;;;;5.38;2.10;;;13.80;99.90;;;18.23;98.18;100994.34;5009137;28;20460;-77
2023/06/27 04:33:28;;;;;;;5.32;1.90;;;13.90;99.90;;;18.36;96.08;100997.81;5003239;28;20045;-77
2023/06/27 04:36:00;;;;;;;9.13;2.20;;;14.00;99.90;;;18.47;95.25;100985.75;5000072;28;20042;-77
2023/06/27 04:38:27;;;;;;;7.22;2.25;;;14.10;99.90;;;18.44;95.64;101010.31;5005172;28;20048;-76
2023/06/27 04:40:53;;;;;;;4.60;2.03;;;14.20;99.90;;;18.49;92.59;100994.59;4995606;28;20363;-76
2023/06/27 04:43:18;;;;;;;4.95;2.38;;;14.30;99.90;;;18.57;94.57;101012.63;5010438;28;20054;-75
2023/06/27 04:45:44;;;;;;;6.63;1.95;;;14.40;99.90;;;18.77;93.54;101003.69;5008418;28;20099;-75
2023/06/27 04:48:10;;;;;;;7.78;1.90;;;14.50;99.90;;;18.55;94.71;101001.84;5010553;28;20486;-75
2023/06/27 04:50:36;;;;;;;6.55;1.98;;;14.60;99.90;;;18.67;91.04;101009.13;5002288;28;20041;-75
2023/06/27 04:53:03;;;;;;;7.18;2.10;;;14.70;99.90;;;18.76;93.25;101007.53;5003767;28;20060;-74
2023/06/27 04:55:29;;;;;;;6.22;2.00;;;14.80;99.90;;;19.01;91.36;101008.06;5000069;28;20050;-74
2023/06/27 04:57:55;;;;;;;6.20;2.17;;;14.90;99.90;;;19.02;91.35;101005.00;5002656;28;20512;-76
2023/06/27 05:00:21;;;;;;;5.28;2.15;;;15.00;99.90;;;18.95;91.44;101002.44;5008914;28;20042;-76
2023/06/27 05:02:47;;;;;;;4.85;2.13;;;15.10;99.90;;;18.96;89.80;101006.91;5011131;28;20041;-75
2023/06/27 05:05:12;;;;;;;7.97;2.10;;;15.20;99.90;;;19.07;92.13;101007.81;4998148;28;20034;-77
2023/06/27 05:07:38;;;;;;;5.18;1.88;;;15.40;99.90;;;19.20;91.59;101019.53;4999264;28;20478;-75
2023/06/27 05:10:04;;;;;;;5.05;2.10;;;;;;;19.48;88.29;101007.25;5007035;28;20045;-77
2023/06/27 05:12:30;;;;;;;8.75;2.50;;;15.50;99.90;;;19.13;89.21;101010.63;4999081;28;20523;-75
2023/06/27 05:14:56;;;;;;;7.55;2.33;;;15.70;99.90;;;18.69;91.00;101006.94;4994605;28;20042;-74
2023/06/27 05:17:21;;;;;;;6.32;2.10;;;15.70;99.90;;;19.54;87.65;101005.34;4979956;28;20038;-76
2023/06/27 05:19:47;;;;;;;6.57;2.35;;;15.80;99.90;;;19.09;87.43;101005.63;4995535;28;20062;-77
2023/06/27 05:22:13;;;;;;;9.73;2.63;;;15.90;99.90;;;19.76;85.27;100998.81;5003803;28;20151;-78
2023/06/27 05:24:39;;;;;;;5.75;1.98;;;16.00;99.90;;;19.89;85.52;101009.38;4996958;28;20037;-78
2023/06/27 05:27:05;;;;;;;7.63;2.53;;;16.10;99.90;;;20.07;81.92;100991.47;4989464;28;20568;-78
2023/06/27 05:29:30;;;;;;;8.32;2.40;;;16.30;99.90;;;20.40;80.75;100994.00;4997790;28;20042;-77
2023/06/27 05:31:56;;;;;;;9.93;2.55;;;;;;;20.36;80.54;100998.44;4994207;28;20133;-77
2023/06/27 05:34:22;;;;;;;5.68;2.00;;;16.40;99.90;;;20.46;78.28;100992.09;4987245;28;20054;-77
2023/06/27 05:36:48;;;;;;;10.57;3.10;;;16.60;99.90;;;19.61;82.71;101008.69;5006614;28;20057;-78
2023/06/27 05:39:14;;;;;;;10.95;2.08;;;16.60;99.90;;;20.16;82.24;101004.78;4993981;28;20038;-77
2023/06/27 05:41:39;;;;;;;6.30;2.30;;;16.70;99.90;;;20.52;77.25;100989.06;4994195;28;20043;-77
2023/06/27 05:44:06;;;;;;;7.15;2.15;;;16.80;99.90;;;20.34;78.31;100989.59;4999879;28;20038;-77
2023/06/27 05:46:38;;;;;;;6.28;2.00;;;16.90;99.90;;;20.15;78.17;100998.41;5003032;28;20563;-76
2023/06/27 05:49:05;;;;;;;5.47;1.90;;;16.90;99.90;;;20.22;78.92;101000.91;5001189;28;20021;-79
2023/06/27 05:51:30;;;;;;;5.93;2.10;;;17.00;99.90;;;20.41;75.02;101001.22;5000290;28;20050;-78
2023/06/27 05:53:56;;;;;;;6.47;2.10;;;17.10;99.90;;;20.58;72.04;100989.91;4981838;28;20050;-79
2023/06/27 05:56:22;;;;;;;5.75;2.17;;;17.20;99.90;;;20.42;72.90;101000.13;4999675;28;20038;-80
2023/06/27 05:58:48;;;;;;;7.85;1.80;;;17.30;99.90;;;20.95;72.00;100986.03;5001157;28;20464;-79
2023/06/27 06:01:13;;;;;;;6.70;2.40;;;17.30;99.90;;;21.04;69.46;100991.00;4996884;28;20041;-77
2023/06/27 06:03:40;;;;;;;6.47;2.20;;;17.50;99.90;;;21.01;66.73;100988.78;4994885;28;20049;-78
2023/06/27 06:06:07;;;;;;;5.60;1.85;;;17.50;99.90;;;20.75;65.64;100988.78;4997966;28;20050;-79
2023/06/27 06:08:32;;;;;;;5.75;1.67;;;17.60;99.90;;;20.17;68.59;100992.59;5000592;28;20057;-80
2023/06/27 06:10:58;;;;;;;6.32;1.85;;;17.60;99.90;;;20.22;69.92;101004.53;4983299;28;20398;-79
2023/06/27 06:13:24;;;;;;;7.20;1.73;;;17.50;99.90;;;20.12;70.36;101001.72;5003359;28;20038;-80
2023/06/27 06:15:49;;;;;;;7.47;2.33;;;17.60;99.90;;;20.41;68.29;100982.69;4994421;28;20049;-79
2023/06/27 06:18:15;;;;;;;7.18;1.83;;;17.60;99.90;;;20.82;67.53;100992.13;4998467;28;20042;-78
2023/06/27 06:20:41;;;;;;;6.70;1.85;;;17.70;99.90;;;21.25;65.49;100997.38;4990287;28;20042;-78
2023/06/27 06:23:06;;;;;;;7.88;2.00;;;17.80;99.90;;;20.95;65.91;101001.81;4997077;28;20034;-78
2023/06/27 06:25:33;;;;;;;4.78;1.92;;;17.80;99.90;;;20.75;67.61;101000.72;4993413;28;20034;-78
2023/06/27 06:27:58;;;;;;;5.68;1.80;;;17.80;99.90;;;21.31;66.31;101007.34;4993394;28;20042;-78
2023/06/27 06:30:24;;;;;;;6.22;2.10;;;18.00;99.90;;;21.24;64.55;100992.94;5003964;28;20044;-79
2023/06/27 06:32:50;;;;;;;6.47;1.80;;;18.10;99.90;;;21.48;63.26;101000.63;4998721;28;20394;-78
2023/06/27 06:35:17;;;;;;;6.45;1.60;;;18.20;99.90;;;21.36;63.09;100998.19;5004193;28;20459;-79
2023/06/27 06:37:42;;;;;;;5.13;1.73;;;18.30;99.90;;;21.32;63.79;101005.38;5000023;28;20030;-80
2023/06/27 06:40:09;;;;;;;5.57;1.75;;;18.40;99.90;;;21.24;64.05;101006.81;4996792;28;20527;-79
2023/06/27 06:42:34;;;;;;;4.72;1.77;;;18.40;99.90;;;21.84;62.64;100995.78;4998401;28;20042;-78
2023/06/27 06:45:01;;;;;;;5.43;1.83;;;18.40;99.90;;;21.43;63.95;101009.81;4990054;28;20038;-79
2023/06/27 06:47:27;;;;;;;7.53;1.85;;;18.40;99.90;;;20.65;65.70;101007.09;4996677;28;20041;-79
2023/06/27 06:49:53;;;;;;;7.22;1.75;;;18.30;99.90;;;20.95;63.96;101001.81;4998392;28;20494;-80
2023/06/27 06:52:18;;;;;;;6.30;1.70;;;18.30;99.90;;;21.24;63.72;101006.81;4992103;28;20038;-82
2023/06/27 06:54:44;;;;;;;4.78;1.83;;;18.40;99.90;;;20.84;65.76;100993.53;5006289;28;20103;-78
2023/06/27 06:57:10;;;;;;;8.05;2.00;;;18.30;99.90;;;21.14;63.15;100991.00;4992296;28;20478;-79
2023/06/27 06:59:36;;;;;;;5.38;1.60;;;18.30;99.90;;;21.49;64.00;100999.53;4997311;28;20108;-79
2023/06/27 07:02:05;;;;;;;6.03;1.88;;;18.60;99.90;;;21.89;61.19;100983.84;4995219;28;20048;-77
2023/06/27 07:04:31;;;;;;;13.40;2.65;;;18.70;99.90;;;22.18;60.13;100991.47;5000499;28;20048;-80
2023/06/27 07:06:57;;;;;;;5.47;1.85;;;18.80;99.90;;;21.58;62.50;101006.16;5001768;28;20026;-78
2023/06/27 07:09:22;;;;;;;6.30;1.60;;;18.80;99.90;;;22.12;59.93;100981.50;4993392;28;20057;-80
2023/06/27 07:11:50;;;;;;;5.30;1.50;;;18.90;99.90;;;22.00;59.06;100984.63;5004626;28;20397;-76
2023/06/27 07:14:18;;;;;;;6.15;1.40;;;19.10;99.90;;;21.20;61.32;100983.50;5005818;28;20061;-79
2023/06/27 07:16:44;;;;;;;;;;;18.80;99.90;;;21.58;61.75;100978.41;5009937;28;20449;-79
2023/06/27 07:19:10;;;;;;;7.95;1.75;;;18.70;99.90;;;21.73;62.04;100985.00;4996230;28;19924;-78
2023/06/27 07:21:37;;;;;;;7.32;1.90;;;19.00;99.90;;;22.34;60.47;100980.25;5007413;28;20050;-81
2023/06/27 07:24:04;;;;;;;5.50;1.58;;;;;;;22.77;57.75;100974.13;4993509;28;20084;-79
2023/06/27 07:26:30;;;;;;;4.50;1.50;;;;;;;22.63;57.09;100979.50;5006577;28;20040;-79
2023/06/27 07:28:56;;;;;;;8.30;1.83;;;19.20;99.90;;;22.37;56.89;100957.44;5001946;28;20049;-76
2023/06/27 07:31:21;;;;;;;9.02;1.88;;;19.30;99.90;;;21.99;59.48;100978.22;5006011;28;20111;-79
2023/06/27 07:33:47;;;;;;;7.80;2.13;;;19.20;99.90;;;22.23;60.00;100977.53;5012889;28;20038;-79
2023/06/27 07:36:13;;;;;;;6.70;1.83;;;19.10;99.90;;;22.63;58.64;100968.38;5004144;28;20039;-77
2023/06/27 07:38:39;;;;;;;8.88;1.80;;;19.30;99.90;;;22.92;59.77;100967.56;5006964;28;20030;-77
2023/06/27 07:41:04;;;;;;;6.60;1.70;;;19.50;99.90;;;21.78;57.83;100971.13;5001752;28;20056;-76
2023/06/27 07:43:30;;;;;;;5.45;1.75;;;19.40;99.90;;;22.47;58.94;100962.94;5006965;28;20041;-77
2023/06/27 07:45:56;;;;;;;6.40;1.80;;;;;;;23.35;55.92;100956.59;5009714;28;20052;-77
2023/06/27 07:48:22;;;;;;;7.35;2.45;;;19.40;99.90;;;22.80;56.73;100965.19;4997711;28;20026;-79
2023/06/27 07:50:48;;;;;;;5.10;1.52;;;20.10;99.90;;;23.12;54.78;100958.19;5013729;28;20105;-77
2023/06/27 07:53:13;;;;;;;6.25;1.50;;;20.10;99.90;;;22.66;55.03;100957.50;5001945;28;20038;-76
2023/06/27 07:55:39;;;;;;;7.88;1.95;;;20.00;99.90;;;23.40;53.18;100958.47;4995972;28;20034;-77
2023/06/27 07:58:05;;;;;;;6.45;1.50;;;20.00;99.90;;;23.12;55.68;100964.59;4996248;28;20117;-77
2023/06/27 08:00:31;;;;;;;5.60;1.55;;;20.10;99.90;;;23.35;54.32;100958.53;5000536;28;20603;-77
2023/06/27 08:02:56;;;;;;;8.73;1.63;;;20.30;99.90;;;22.49;55.14;100957.91;5003868;28;20061;-77
2023/06/27 08:05:22;;;;;;;7.78;2.20;;;20.20;99.70;;;22.02;56.58;100976.03;5007476;28;20081;-75
2023/06/27 08:07:48;;;;;;;4.10;1.50;;;19.90;99.90;;;22.28;58.75;100965.56;5004497;28;20040;-77
2023/06/27 08:10:13;;;;;;;5.95;1.38;;;19.60;99.90;;;21.64;55.26;100943.13;5002991;28;20120;-78
2023/06/27 08:12:39;;;;;;;5.70;1.42;;;19.30;99.60;;;21.36;57.21;100967.66;5002640;28;20042;-78
2023/06/27 08:15:06;;;;;;;5.57;1.40;;;19.00;99.90;;;21.75;56.24;100966.13;5001177;28;20053;-77
2023/06/27 08:17:31;;;;;;;7.07;1.52;;;19.00;99.90;;;22.20;54.46;100950.31;5006984;28;20393;-77
2023/06/27 08:19:57;;;;;;;4.40;1.70;;;19.30;99.70;;;23.25;53.20;100951.13;4995591;28;20045;-77
2023/06/27 08:22:23;;;;;;;5.10;1.55;;;20.00;99.90;;;22.57;53.38;100958.44;4998360;28;20107;-75
2023/06/27 08:24:49;;;;;;;7.97;1.75;;;20.10;99.00;;;22.23;55.26;100960.03;5001401;28;20038;-77
2023/06/27 08:27:16;;;;;;;4.80;1.30;;;19.90;99.40;;;22.44;53.66;100941.25;5003996;28;20060;-79
2023/06/27 08:29:42;;;;;;;7.18;1.50;;;20.00;98.90;;;22.84;53.29;100955.13;4995376;28;20046;-78
2023/06/27 08:32:07;;;;;;;6.03;1.50;;;20.10;99.50;;;23.06;52.21;100943.50;4998656;28;20037;-77
2023/06/27 08:34:38;;;;;;;4.88;1.38;;;20.10;98.60;;;22.33;50.61;100929.38;4991926;28;20129;-76
2023/06/27 08:37:05;;;;;;;3.67;1.08;;;19.90;97.10;;;22.83;49.08;100934.84;5011519;28;20046;-77
2023/06/27 08:39:30;;;;;;;5.18;1.50;;;20.00;97.00;;;22.84;50.22;100936.50;4989628;28;20089;-78
2023/06/27 08:41:57;;;;;;;6.20;1.23;;;20.00;97.50;;;22.87;49.49;100939.81;4999927;28;20433;-77
2023/06/27 08:44:22;;;;;;;5.45;1.27;;;20.20;97.00;;;22.66;51.05;100940.00;4995242;28;20050;-82
2023/06/27 08:46:50;;;;;;;3.05;1.25;;;20.00;97.40;;;21.75;54.12;100952.25;4999988;28;20041;-79
2023/06/27 08:49:22;;;;;;;7.57;1.55;;;19.60;98.20;;;22.57;50.61;100937.03;5000598;28;20046;-78
2023/06/27 08:51:50;;;;;;;4.30;1.30;;;19.60;97.40;;;22.54;50.42;100930.09;5001777;28;20390;-80
2023/06/27 08:54:32;;;;;;;5.85;1.50;;;19.70;97.10;;;23.14;49.39;100930.91;5003763;28;20050;-81
2023/06/27 08:57:00;;;;;;;7.30;1.52;;;19.80;97.30;;;22.88;49.67;100933.94;5005161;28;20885;-85
2023/06/27 08:59:31;;;;;;;;;;;19.80;97.30;;;23.32;48.58;100920.16;5005710;28;20060;-83
2023/06/27 09:02:00;;;;;;;6.07;1.55;;;20.10;97.00;;;23.89;47.01;100920.25;5008902;28;19971;-83
2023/06/27 09:04:27;;;;;;;5.85;1.83;;;20.60;96.60;;;23.67;46.71;100907.75;4990238;28;20034;-84
2023/06/27 09:06:54;;;;;;;3.95;1.20;;;20.60;95.40;;;24.09;45.58;100893.22;4999005;28;20513;-80
2023/06/27 09:09:21;;;;;;;4.70;1.20;;;20.80;94.70;;;23.98;44.91;100887.78;5009413;28;20466;-79
2023/06/27 09:11:50;;;;;;;5.78;1.58;;;21.00;94.40;;;23.33;45.61;100896.75;5004576;28;20493;-79
2023/06/27 09:14:15;;;;;;;7.30;1.20;;;20.90;93.80;;;24.08;44.88;100886.84;5006286;28;20505;-82
2023/06/27 09:16:42;;;;;;;4.38;1.02;;;;;;;24.91;44.53;100890.16;5005752;28;20041;-81
2023/06/27 09:19:08;;;;;;;6.20;1.10;;;20.90;94.00;;;24.62;44.52;100882.88;4992852;28;20038;-82
2023/06/27 09:21:34;;;;;;;7.45;1.30;;;21.90;93.70;;;24.61;43.20;100884.00;5000784;28;20049;-82
2023/06/27 09:24:07;;;;;;;6.28;1.45;;;22.10;91.80;;;25.27;42.52;100884.69;4994171;28;20037;-84
2023/06/27 09:26:33;;;;;;;11.05;1.70;;;22.20;91.50;;;25.11;42.28;100870.22;4995120;28;20129;-82
2023/06/27 09:29:00;;;;;;;4.55;1.40;;;22.10;91.20;;;25.20;42.58;100886.28;5005129;28;20121;-85
2023/06/27 09:31:28;;;;;;;3.90;1.30;;;21.90;91.70;;;23.38;44.66;100900.31;5004323;28;20389;-82
2023/06/27 09:34:09;;;;;;;6.72;1.30;;;21.30;91.50;;;24.34;45.70;100913.44;4996809;28;20037;-83
2023/06/27 09:36:37;;;;;;;5.90;1.30;;;21.30;93.30;;;25.30;42.03;100863.72;4995539;28;20042;-83
2023/06/27 09:39:06;;;;;;;4.53;1.40;;;21.90;91.30;;;24.83;42.51;100886.97;4997841;28;20524;-84
2023/06/27 09:41:49;;;;;;;6.43;1.40;;;22.30;90.70;;;24.85;42.26;100892.25;4999499;28;20042;-82
2023/06/27 09:44:18;;;;;;;3.97;1.15;;;22.40;90.10;;;24.04;42.69;100884.94;4997860;28;20500;-85
2023/06/27 09:46:45;;;;;;;3.63;1.20;;;21.80;89.10;;;23.48;42.78;100895.75;5002203;28;20038;-79
2023/06/27 09:49:12;;;;;;;4.70;1.40;;;21.30;88.90;;;23.64;43.15;100911.13;4996887;28;20038;-80
2023/06/27 09:51:38;;;;;;;6.22;1.27;;;21.30;90.20;;;23.04;42.53;100889.28;4988784;28;20050;-80
2023/06/27 09:54:05;;;;;;;6.45;1.27;;;21.10;88.80;;;24.48;43.18;100913.50;5009847;28;20066;-79
2023/06/27 09:56:34;;;;;;;3.47;1.33;;;21.30;91.40;;;23.85;39.32;100841.19;5008130;28;20041;-80
2023/06/27 09:59:08;;;;;;;7.55;1.40;;;21.50;85.10;;;24.94;40.79;100881.22;5007252;28;20421;-78
2023/06/27 10:01:37;;;;;;;6.28;1.33;;;21.90;89.90;;;24.98;40.66;100871.06;4994791;28;20145;-79
2023/06/27 10:04:03;;;;;;;3.00;0.98;;;22.10;88.60;;;24.58;39.92;100865.94;4997815;28;20034;-83
2023/06/27 10:06:29;;;;;;;6.60;1.30;;;22.10;85.90;;;25.11;39.06;100859.06;4983124;28;20030;-82
2023/06/27 10:08:56;;;;;;;3.88;1.05;;;22.40;85.40;;;25.94;38.44;100854.47;4994801;28;20493;-81
2023/06/27 10:11:23;;;;;;;3.50;1.17;;;22.90;85.30;;;25.50;38.54;100864.44;4993562;28;20057;-83